createdAt,value
2022-08-12T00:01:15.159Z,10.70
2022-08-12T00:04:04.766Z,7.40
2022-08-12T00:06:53.399Z,9.00
2022-08-12T00:09:40.640Z,7.00
2022-08-12T00:12:26.917Z,8.00
2022-08-12T00:15:13.633Z,7.60
2022-08-12T00:18:02.834Z,9.80
2022-08-12T00:20:49.933Z,11.50
2022-08-12T00:23:39.573Z,8.30
2022-08-12T00:26:33.315Z,8.50
2022-08-12T00:29:19.916Z,8.20
2022-08-12T00:32:06.728Z,7.90
2022-08-12T00:34:58.936Z,8.30
2022-08-12T00:37:45.620Z,8.70
2022-08-12T00:40:32.698Z,9.20
2022-08-12T00:43:03.677Z,7.60
2022-08-12T00:45:52.413Z,8.80
2022-08-12T00:48:22.372Z,9.10
2022-08-12T00:50:55.253Z,10.50
2022-08-12T00:53:24.540Z,9.60
2022-08-12T00:55:56.353Z,7.90
2022-08-12T00:58:29.689Z,7.60
2022-08-12T01:01:17.867Z,8.30
2022-08-12T01:04:08.907Z,10.30
2022-08-12T01:06:56.205Z,8.20
2022-08-12T01:09:43.589Z,9.00
2022-08-12T01:12:12.696Z,10.10
2022-08-12T01:14:42.302Z,9.20
2022-08-12T01:17:10.706Z,10.50
2022-08-12T01:19:39.012Z,9.70
2022-08-12T01:22:23.360Z,9.40
2022-08-12T01:25:23.147Z,8.20
2022-08-12T01:27:53.268Z,8.70
2022-08-12T01:30:24.241Z,8.60
2022-08-12T01:32:56.087Z,9.80
2022-08-12T01:35:27.344Z,7.30
2022-08-12T01:38:05.131Z,9.30
2022-08-12T01:40:37.863Z,9.50
2022-08-12T01:43:10.203Z,9.70
2022-08-12T01:46:09.132Z,7.90
2022-08-12T01:48:43.804Z,8.20
2022-08-12T01:52:21.189Z,6.90
2022-08-12T01:54:46.286Z,8.20
2022-08-12T01:57:59.358Z,7.60
2022-08-12T02:00:16.717Z,7.90
2022-08-12T02:02:58.258Z,7.60
2022-08-12T02:06:12.847Z,7.10
2022-08-12T02:09:09.372Z,9.30
2022-08-12T02:11:57.018Z,7.10
2022-08-12T02:14:59.216Z,10.00
2022-08-12T02:17:55.637Z,8.10
2022-08-12T02:20:52.135Z,6.90
2022-08-12T02:23:27.537Z,9.30
2022-08-12T02:26:04.823Z,12.00
2022-08-12T02:28:33.938Z,7.50
2022-08-12T02:31:09.069Z,9.40
2022-08-12T02:33:38.160Z,7.80
2022-08-12T02:36:06.649Z,6.80
2022-08-12T02:38:37.454Z,7.50
2022-08-12T02:41:06.154Z,7.50
2022-08-12T02:43:38.054Z,8.00
2022-08-12T02:46:14.776Z,6.80
2022-08-12T02:49:01.126Z,8.90
2022-08-12T02:51:37.530Z,10.50
2022-08-12T02:54:07.527Z,7.90
2022-08-12T02:56:50.386Z,8.40
2022-08-12T02:59:23.020Z,8.60
2022-08-12T03:01:54.287Z,8.90
2022-08-12T03:04:31.219Z,8.30
2022-08-12T03:07:06.692Z,8.00
2022-08-12T03:10:04.847Z,7.60
2022-08-12T03:12:48.766Z,8.30
2022-08-12T03:15:22.372Z,8.70
2022-08-12T03:18:23.508Z,8.50
2022-08-12T03:20:51.019Z,7.20
2022-08-12T03:23:30.341Z,6.30
2022-08-12T03:26:03.314Z,8.60
2022-08-12T03:28:53.879Z,9.80
2022-08-12T03:31:25.834Z,7.30
2022-08-12T03:34:03.025Z,9.30
2022-08-12T03:36:35.421Z,8.30
2022-08-12T03:39:45.871Z,7.60
2022-08-12T03:42:40.915Z,7.90
2022-08-12T03:45:52.574Z,8.00
2022-08-12T03:48:39.967Z,8.40
2022-08-12T03:51:27.019Z,9.60
2022-08-12T03:54:14.575Z,6.30
2022-08-12T03:57:01.043Z,7.90
2022-08-12T03:59:47.614Z,10.10
2022-08-12T04:02:17.548Z,9.00
2022-08-12T04:04:46.526Z,9.10
2022-08-12T04:07:16.597Z,8.80
2022-08-12T04:09:46.716Z,8.40
2022-08-12T04:12:33.735Z,7.00
2022-08-12T04:15:03.668Z,9.40
2022-08-12T04:17:31.921Z,7.30
2022-08-12T04:20:00.091Z,8.00
2022-08-12T04:22:31.022Z,7.50
2022-08-12T04:25:02.935Z,10.70
2022-08-12T04:27:32.430Z,9.10
2022-08-12T04:30:16.648Z,8.70
2022-08-12T04:32:51.904Z,7.70
2022-08-12T04:35:20.873Z,7.00
2022-08-12T04:37:58.758Z,10.10
2022-08-12T04:40:31.557Z,8.60
2022-08-12T04:43:03.414Z,7.80
2022-08-12T04:45:34.816Z,9.30
2022-08-12T04:48:02.975Z,9.80
2022-08-12T04:50:35.963Z,8.30
2022-08-12T04:53:08.104Z,7.20
2022-08-12T04:55:39.082Z,9.50
2022-08-12T04:58:09.405Z,8.80
2022-08-12T05:00:38.249Z,8.60
2022-08-12T05:03:07.702Z,10.80
2022-08-12T05:05:40.787Z,11.10
2022-08-12T05:08:16.778Z,8.70
2022-08-12T05:10:47.283Z,9.30
2022-08-12T05:13:28.760Z,11.30
2022-08-12T05:16:04.409Z,9.60
2022-08-12T05:18:39.822Z,8.30
2022-08-12T05:21:10.872Z,8.30
2022-08-12T05:23:40.580Z,10.30
2022-08-12T05:26:10.371Z,9.50
2022-08-12T05:28:38.541Z,9.20
2022-08-12T05:31:06.446Z,9.10
2022-08-12T05:33:40.145Z,10.40
2022-08-12T05:36:12.872Z,8.60
2022-08-12T05:38:57.137Z,9.20
2022-08-12T05:41:32.590Z,10.20
2022-08-12T05:44:04.047Z,10.30
2022-08-12T05:46:33.087Z,7.00
2022-08-12T05:49:01.913Z,10.20
2022-08-12T05:51:40.628Z,8.10
2022-08-12T05:54:11.738Z,8.40
2022-08-12T05:56:41.586Z,7.10
2022-08-12T05:59:12.251Z,7.80
2022-08-12T06:02:10.230Z,10.10
2022-08-12T06:04:31.463Z,7.70
2022-08-12T06:07:02.031Z,7.60
2022-08-12T06:09:50.393Z,7.40
2022-08-12T06:12:21.824Z,7.10
2022-08-12T06:14:50.139Z,6.10
2022-08-12T06:17:18.206Z,7.80
2022-08-12T06:20:28.200Z,8.10
2022-08-12T06:22:35.244Z,7.70
2022-08-12T06:25:03.081Z,7.70
2022-08-12T06:27:30.930Z,7.40
2022-08-12T06:30:09.956Z,5.80
2022-08-12T06:32:51.869Z,9.10
2022-08-12T06:35:48.209Z,6.10
2022-08-12T06:38:25.503Z,6.90
2022-08-12T06:41:17.636Z,6.90
2022-08-12T06:44:06.498Z,9.70
2022-08-12T06:46:37.143Z,7.10
2022-08-12T06:49:07.071Z,7.90
2022-08-12T06:51:34.927Z,6.20
2022-08-12T06:54:02.993Z,7.90
2022-08-12T06:57:01.903Z,6.90
2022-08-12T06:59:21.402Z,6.50
2022-08-12T07:01:51.589Z,6.10
2022-08-12T07:04:38.727Z,10.50
2022-08-12T07:07:09.358Z,7.60
2022-08-12T07:10:05.054Z,9.20
2022-08-12T07:12:28.415Z,6.90
2022-08-12T07:14:58.545Z,7.70
2022-08-12T07:17:36.842Z,9.10
2022-08-12T07:20:29.710Z,6.70
2022-08-12T07:22:58.973Z,7.00
2022-08-12T07:25:40.712Z,7.30
2022-08-12T07:28:16.938Z,8.80
2022-08-12T07:30:48.579Z,6.80
2022-08-12T07:33:18.731Z,8.20
2022-08-12T07:35:48.177Z,7.90
2022-08-12T07:38:33.861Z,9.70
2022-08-12T07:41:05.757Z,6.70
2022-08-12T07:43:36.791Z,6.30
2022-08-12T07:46:09.498Z,6.30
2022-08-12T07:48:49.109Z,7.00
2022-08-12T07:51:25.216Z,10.60
2022-08-12T07:54:01.001Z,6.30
2022-08-12T07:56:31.720Z,6.20
2022-08-12T07:59:01.382Z,8.10
2022-08-12T08:01:30.598Z,6.40
2022-08-12T08:04:20.893Z,7.90
2022-08-12T08:06:50.307Z,7.70
2022-08-12T08:09:21.422Z,8.00
2022-08-12T08:12:09.120Z,6.00
2022-08-12T08:14:37.273Z,7.20
2022-08-12T08:17:06.664Z,6.80
2022-08-12T08:19:48.536Z,8.20
2022-08-12T08:22:40.999Z,8.50
2022-08-12T08:25:34.758Z,7.40
2022-08-12T08:28:03.946Z,8.70
2022-08-12T08:30:32.770Z,6.00
2022-08-12T08:33:00.742Z,6.30
2022-08-12T08:35:46.174Z,6.70
2022-08-12T08:38:28.750Z,6.40
2022-08-12T08:42:19.266Z,7.40
2022-08-12T08:44:12.166Z,9.00
2022-08-12T08:46:41.238Z,7.70
2022-08-12T08:49:09.309Z,6.80
2022-08-12T08:51:39.297Z,6.40
2022-08-12T08:54:12.828Z,5.80
2022-08-12T08:56:46.464Z,6.90
2022-08-12T08:59:16.406Z,7.40
2022-08-12T09:01:44.694Z,6.30
2022-08-12T09:05:09.145Z,4.90
2022-08-12T09:07:18.190Z,6.80
2022-08-12T09:10:02.615Z,7.80
2022-08-12T09:12:55.157Z,6.10
2022-08-12T09:15:41.726Z,7.10
2022-08-12T09:18:11.198Z,6.30
2022-08-12T09:23:59.957Z,6.10
2022-08-12T09:26:19.283Z,6.50
2022-08-12T09:28:49.037Z,6.90
2022-08-12T09:32:07.127Z,5.60
2022-08-12T09:34:25.785Z,7.40
2022-08-12T09:37:00.767Z,6.70
2022-08-12T09:40:06.323Z,6.80
2022-08-12T09:42:48.378Z,7.20
2022-08-12T09:46:11.712Z,6.20
2022-08-12T09:48:22.148Z,7.70
2022-08-12T09:50:54.987Z,7.70
2022-08-12T09:53:29.268Z,7.40
2022-08-12T09:57:00.128Z,5.90
2022-08-12T09:59:00.527Z,7.40
2022-08-12T10:01:35.055Z,7.40
2022-08-12T10:04:21.273Z,6.40
2022-08-12T10:06:54.656Z,7.30
2022-08-12T10:09:57.547Z,7.00
2022-08-12T10:12:43.628Z,6.80
2022-08-12T10:16:01.923Z,7.20
2022-08-12T10:18:07.999Z,7.30
2022-08-12T10:20:36.003Z,6.10
2022-08-12T10:23:03.876Z,7.10
2022-08-12T10:26:34.729Z,8.70
2022-08-12T10:30:01.285Z,9.10
2022-08-12T10:32:21.408Z,7.10
2022-08-12T10:34:41.547Z,6.50
2022-08-12T10:38:34.013Z,7.10
2022-08-12T10:40:15.703Z,8.30
2022-08-12T10:43:07.373Z,8.50
2022-08-12T10:45:38.421Z,8.00
2022-08-12T10:48:21.202Z,7.90
2022-08-12T10:50:58.614Z,6.60
2022-08-12T10:53:45.575Z,11.80
2022-08-12T10:56:16.290Z,9.40
2022-08-12T10:58:46.884Z,8.30
2022-08-12T11:03:01.518Z,7.10
2022-08-12T11:04:26.251Z,7.80
2022-08-12T11:07:07.641Z,9.20
2022-08-12T11:10:00.679Z,9.10
2022-08-12T11:12:55.208Z,7.50
2022-08-12T11:15:33.042Z,9.30
2022-08-12T11:18:17.782Z,9.50
2022-08-12T11:20:48.569Z,8.30
2022-08-12T11:23:25.601Z,9.50
2022-08-12T11:26:07.614Z,11.30
2022-08-12T11:28:38.039Z,10.40
2022-08-12T11:31:12.425Z,6.90
2022-08-12T11:34:05.785Z,8.90
2022-08-12T11:36:31.916Z,7.30
2022-08-12T11:39:04.334Z,8.50
2022-08-12T11:41:34.828Z,8.50
2022-08-12T11:44:35.919Z,10.50
2022-08-12T11:46:54.747Z,9.80
2022-08-12T11:49:31.807Z,7.30
2022-08-12T11:52:02.191Z,10.00
2022-08-12T11:54:31.680Z,9.10
2022-08-12T11:57:02.437Z,9.90
2022-08-12T12:02:21.450Z,7.70
2022-08-12T12:04:52.287Z,8.30
2022-08-12T12:07:33.954Z,9.70
2022-08-12T12:10:18.276Z,8.20
2022-08-12T12:12:49.515Z,10.30
2022-08-12T12:15:24.651Z,10.30
2022-08-12T12:17:55.081Z,12.20
2022-08-12T12:20:26.102Z,12.70
2022-08-12T12:22:58.689Z,10.70
2022-08-12T12:25:59.465Z,10.90
2022-08-12T12:28:36.806Z,8.60
2022-08-12T12:31:14.555Z,11.60
2022-08-12T12:33:58.180Z,9.50
2022-08-12T12:36:30.199Z,9.10
2022-08-12T12:39:00.039Z,10.60
2022-08-12T12:42:41.720Z,10.30
2022-08-12T12:44:25.740Z,8.50
2022-08-12T12:47:29.943Z,9.10
2022-08-12T12:49:54.731Z,8.80
2022-08-12T12:52:26.780Z,9.30
2022-08-12T12:54:55.675Z,8.80
2022-08-12T12:57:36.180Z,11.90
2022-08-12T13:00:18.087Z,10.20
2022-08-12T13:02:58.317Z,9.20
2022-08-12T13:05:29.919Z,9.80
2022-08-12T13:08:35.634Z,9.90
2022-08-12T13:11:07.732Z,9.50
2022-08-12T13:14:08.676Z,9.10
2022-08-12T13:16:29.554Z,9.50
2022-08-12T13:18:58.353Z,9.10
2022-08-12T13:21:36.812Z,10.40
2022-08-12T13:24:11.096Z,10.80
2022-08-12T13:26:40.743Z,9.30
2022-08-12T13:29:11.659Z,9.30
2022-08-12T13:32:19.575Z,8.60
2022-08-12T13:34:34.313Z,9.00
2022-08-12T13:37:09.772Z,8.40
2022-08-12T13:39:39.240Z,9.60
2022-08-12T13:42:14.660Z,10.50
2022-08-12T13:44:43.073Z,9.00
2022-08-12T13:47:18.635Z,8.90
2022-08-12T13:49:54.091Z,12.30
2022-08-12T13:52:25.566Z,9.70
2022-08-12T13:54:54.145Z,11.00
2022-08-12T13:57:46.798Z,8.90
2022-08-12T14:00:16.661Z,7.50
2022-08-12T14:02:44.963Z,10.30
2022-08-12T14:05:31.040Z,8.60
2022-08-12T14:08:07.914Z,9.40
2022-08-12T14:10:50.824Z,10.80
2022-08-12T14:14:03.427Z,10.50
2022-08-12T14:16:49.213Z,11.20
2022-08-12T14:19:24.982Z,12.30
2022-08-12T14:22:01.581Z,11.20
2022-08-12T14:24:40.480Z,12.40
2022-08-12T14:27:11.009Z,14.10
2022-08-12T14:30:05.874Z,13.30
2022-08-12T14:32:35.528Z,13.50
2022-08-12T14:35:09.795Z,15.10
2022-08-12T14:37:58.008Z,11.60
2022-08-12T14:40:29.850Z,13.90
2022-08-12T14:43:25.782Z,14.40
2022-08-12T14:46:12.142Z,16.00
2022-08-12T14:50:37.369Z,15.00
2022-08-12T14:53:11.331Z,39.50
2022-08-12T14:58:03.331Z,13.30
2022-08-12T15:00:52.667Z,11.40
2022-08-12T15:03:52.082Z,14.30
2022-08-12T15:06:44.300Z,11.40
2022-08-12T15:09:12.114Z,15.40
2022-08-12T15:11:55.169Z,13.30
2022-08-12T15:14:31.778Z,17.80
2022-08-12T15:17:00.756Z,14.70
2022-08-12T15:20:30.870Z,14.10
2022-08-12T15:22:37.443Z,16.60
2022-08-12T15:25:07.829Z,16.10
2022-08-12T15:28:04.260Z,13.80
2022-08-12T15:30:31.627Z,15.10
2022-08-12T15:32:59.801Z,16.70
2022-08-12T15:35:49.994Z,16.90
2022-08-12T15:38:20.881Z,16.40
2022-08-12T15:40:51.395Z,22.10
2022-08-12T15:43:51.286Z,17.70
2022-08-12T15:46:15.834Z,19.60
2022-08-12T15:48:46.471Z,17.50
2022-08-12T15:51:58.804Z,15.10
2022-08-12T15:54:34.428Z,12.40
2022-08-12T15:57:08.185Z,15.50
2022-08-12T16:00:00.019Z,13.30
2022-08-12T16:02:29.480Z,13.00
2022-08-12T16:04:58.250Z,13.70
2022-08-12T16:07:39.509Z,13.30
2022-08-12T16:10:09.165Z,14.30
2022-08-12T16:12:39.828Z,13.20
2022-08-12T16:15:13.364Z,14.60
2022-08-12T16:18:15.161Z,13.90
2022-08-12T16:20:34.241Z,11.30
2022-08-12T16:23:36.127Z,12.00
2022-08-12T16:26:05.446Z,12.80
2022-08-12T16:28:47.361Z,10.80
2022-08-12T16:31:23.224Z,12.40
2022-08-12T16:33:59.346Z,10.80
2022-08-12T16:36:29.946Z,11.00
2022-08-12T16:39:06.868Z,11.70
2022-08-12T16:41:39.914Z,11.70
2022-08-12T16:44:09.190Z,11.00
2022-08-12T16:46:38.197Z,13.30
2022-08-12T16:49:13.362Z,11.90
2022-08-12T16:51:46.948Z,15.00
2022-08-12T16:54:18.588Z,13.80
2022-08-12T16:56:50.607Z,14.80
2022-08-12T16:59:24.099Z,13.10
2022-08-12T17:01:52.568Z,13.80
2022-08-12T17:04:24.439Z,14.30
2022-08-12T17:06:53.636Z,11.30
2022-08-12T17:09:21.945Z,12.40
2022-08-12T17:11:50.456Z,12.70
2022-08-12T17:14:22.943Z,14.40
2022-08-12T17:16:55.415Z,13.20
2022-08-12T17:20:28.979Z,15.80
2022-08-12T17:22:16.726Z,15.00
2022-08-12T17:24:54.772Z,17.50
2022-08-12T17:27:26.510Z,29.70
2022-08-12T17:30:01.943Z,28.30
2022-08-12T17:32:33.800Z,20.70
2022-08-12T17:35:21.166Z,17.80
2022-08-12T17:37:50.893Z,14.80
2022-08-12T17:40:35.608Z,14.50
2022-08-12T17:43:55.762Z,14.60
2022-08-12T17:46:00.252Z,16.70
2022-08-12T17:48:34.751Z,15.10
2022-08-12T17:51:15.496Z,23.90
2022-08-12T17:54:10.431Z,22.70
2022-08-12T17:56:39.872Z,19.90
2022-08-12T17:59:12.613Z,17.40
2022-08-12T18:01:45.307Z,16.10
2022-08-12T18:04:22.390Z,17.50
2022-08-12T18:06:53.833Z,14.90
2022-08-12T18:09:24.290Z,14.50
2022-08-12T18:12:13.034Z,14.10
2022-08-12T18:14:47.580Z,14.90
2022-08-12T18:17:18.064Z,16.30
2022-08-12T18:20:05.360Z,15.30
2022-08-12T18:22:35.825Z,16.40
2022-08-12T18:26:12.516Z,15.00
2022-08-12T18:28:16.152Z,17.00
2022-08-12T18:30:52.810Z,17.60
2022-08-12T18:33:26.815Z,15.60
2022-08-12T18:35:56.990Z,16.30
2022-08-12T18:38:28.192Z,17.40
2022-08-12T18:41:22.051Z,17.00
2022-08-12T18:44:03.248Z,15.10
2022-08-12T18:46:55.315Z,16.00
2022-08-12T18:49:39.436Z,15.70
2022-08-12T18:52:11.768Z,15.30
2022-08-12T18:54:49.733Z,17.30
2022-08-12T18:58:06.067Z,16.10
2022-08-12T19:00:21.213Z,17.20
2022-08-12T19:02:54.724Z,17.60
2022-08-12T19:05:53.467Z,17.60
2022-08-12T19:08:15.532Z,17.40
2022-08-12T19:10:50.690Z,17.10
2022-08-12T19:13:39.957Z,15.30
2022-08-12T19:16:11.724Z,16.20
2022-08-12T19:18:45.060Z,15.10
2022-08-12T19:21:16.366Z,17.30
2022-08-12T19:24:08.987Z,15.90
2022-08-12T19:26:37.808Z,17.00
2022-08-12T19:29:08.388Z,16.50
2022-08-12T19:31:57.960Z,14.80
2022-08-12T19:37:38.741Z,15.40
2022-08-12T19:40:20.605Z,18.00
2022-08-12T19:43:13.326Z,15.40
2022-08-12T19:45:51.616Z,15.60
2022-08-12T19:48:22.111Z,15.90
2022-08-12T19:50:53.619Z,14.40
2022-08-12T19:53:24.648Z,17.40
2022-08-12T19:55:55.443Z,15.70
2022-08-12T19:58:24.636Z,16.80
2022-08-12T20:00:54.649Z,15.90
2022-08-12T20:03:39.460Z,15.60
2022-08-12T20:06:13.868Z,14.80
2022-08-12T20:08:48.721Z,17.10
2022-08-12T20:12:14.506Z,18.30
2022-08-12T20:14:21.718Z,15.30
2022-08-12T20:17:02.455Z,15.60
2022-08-12T20:20:16.528Z,16.90
2022-08-12T20:22:31.557Z,15.50
2022-08-12T20:25:10.384Z,14.40
2022-08-12T20:28:04.604Z,16.80
2022-08-12T20:30:59.239Z,14.90
2022-08-12T20:33:32.347Z,16.00
2022-08-12T20:36:40.642Z,15.50
2022-08-12T20:39:34.288Z,15.80
2022-08-12T20:42:20.181Z,14.10
2022-08-12T20:44:51.706Z,15.70
2022-08-12T20:47:20.854Z,14.70
2022-08-12T20:49:55.364Z,16.10
2022-08-12T20:52:34.100Z,17.70
2022-08-12T20:55:18.915Z,17.70
2022-08-12T20:58:01.988Z,15.00
2022-08-12T21:00:33.231Z,15.10
2022-08-12T21:03:21.487Z,14.40
2022-08-12T21:06:13.533Z,14.10
2022-08-12T21:08:43.586Z,14.40
2022-08-12T21:11:11.862Z,18.20
2022-08-12T21:13:42.331Z,14.20
2022-08-12T21:16:12.981Z,15.80
2022-08-12T21:18:41.372Z,14.10
2022-08-12T21:21:23.206Z,15.90
2022-08-12T21:23:56.291Z,15.90
2022-08-12T21:26:27.866Z,15.30
2022-08-12T21:29:01.299Z,14.60
2022-08-12T21:32:40.111Z,16.30
2022-08-12T21:34:29.684Z,19.80
2022-08-12T21:37:12.954Z,17.80
2022-08-12T21:39:41.583Z,15.10
2022-08-12T21:42:26.975Z,18.90
2022-08-12T21:45:47.526Z,15.90
2022-08-12T21:47:47.562Z,19.20
2022-08-12T21:50:29.070Z,14.80
2022-08-12T21:52:57.777Z,17.60
2022-08-12T21:55:34.655Z,17.50
2022-08-12T21:58:11.691Z,17.70
2022-08-12T22:00:45.089Z,17.90
2022-08-12T22:04:10.982Z,15.00
2022-08-12T22:06:31.134Z,15.80
2022-08-12T22:09:16.472Z,19.60
2022-08-12T22:11:56.934Z,16.40
2022-08-12T22:14:30.702Z,17.90
2022-08-12T22:17:01.487Z,16.80
2022-08-12T22:19:35.239Z,18.50
2022-08-12T22:22:05.378Z,17.30
2022-08-12T22:24:34.710Z,19.40
2022-08-12T22:27:18.215Z,18.10
2022-08-12T22:30:16.969Z,17.20
2022-08-12T22:32:49.802Z,13.50
2022-08-12T22:35:29.765Z,15.60
2022-08-12T22:38:20.263Z,14.80
2022-08-12T22:41:04.079Z,13.20
2022-08-12T22:43:59.949Z,14.00
2022-08-12T22:46:52.782Z,10.60
2022-08-12T22:49:37.242Z,13.80
2022-08-12T22:52:18.257Z,11.20
2022-08-12T22:55:03.413Z,12.50
2022-08-12T22:57:53.461Z,11.10
2022-08-12T23:00:27.307Z,11.00
2022-08-12T23:03:00.751Z,11.40
2022-08-12T23:05:36.838Z,11.60
2022-08-12T23:08:30.177Z,11.80
2022-08-12T23:11:05.933Z,12.30
2022-08-12T23:13:54.649Z,11.20
2022-08-12T23:16:33.397Z,11.00
2022-08-12T23:19:23.099Z,12.00
2022-08-12T23:22:05.954Z,11.40
2022-08-12T23:24:55.766Z,12.70
2022-08-12T23:27:52.149Z,12.00
2022-08-12T23:30:32.429Z,12.20
2022-08-12T23:33:20.045Z,13.00
2022-08-12T23:36:02.618Z,10.70
2022-08-12T23:38:34.824Z,11.40
2022-08-12T23:41:05.987Z,11.70
2022-08-12T23:43:40.982Z,13.00
2022-08-12T23:46:19.155Z,11.60
2022-08-12T23:49:00.968Z,11.70
2022-08-12T23:51:32.092Z,14.10
2022-08-12T23:54:04.199Z,11.00
2022-08-12T23:56:36.619Z,13.90
2022-08-12T23:59:09.038Z,14.30
